Time;durP1;ratioP1;P1;durP2;ratioP2;P2;SDS_P1;SDS_P2;PMS_P1;PMS_P2;Temp;Humidity;BMP_temperature;BMP_pressure;BME280_temperature;BME280_humidity;BME280_pressure;Samples;Min_cycle;Max_cycle;Signal;HPM_P1;HPM_P2
2023/02/26 00:18:53;;;;;;;2.42;1.35;;;19.00;63.20;;;;;;4717197;29;87516;-84
2023/02/26 00:21:21;;;;;;;3.47;1.42;;;19.00;62.90;;;;;;4706265;29;92023;-84
2023/02/26 00:23:47;;;;;;;3.33;1.42;;;18.90;63.30;;;;;;4705865;29;87918;-85
2023/02/26 00:26:12;;;;;;;2.30;1.27;;;18.90;63.10;;;;;;4704237;29;88370;-84
2023/02/26 00:28:38;;;;;;;2.13;1.20;;;18.90;63.30;;;;;;4703208;29;88392;-84
2023/02/26 00:31:05;;;;;;;2.72;1.40;;;18.90;63.20;;;;;;4703660;29;87532;-84
2023/02/26 00:33:31;;;;;;;1.83;1.10;;;18.90;63.20;;;;;;4704704;29;88077;-85
2023/02/26 00:36:11;;;;;;;2.15;1.30;;;18.90;63.30;;;;;;4702240;29;89283;-84
2023/02/26 00:38:38;;;;;;;2.70;1.40;;;18.80;63.10;;;;;;4707329;29;87364;-84
2023/02/26 00:41:03;;;;;;;2.20;1.15;;;18.90;63.00;;;;;;4704680;29;87276;-84
2023/02/26 00:43:29;;;;;;;2.50;1.67;;;18.80;62.90;;;;;;4705973;29;87516;-84
2023/02/26 00:46:13;;;;;;;2.40;1.38;;;18.80;62.90;;;;;;4707212;29;87691;-85
2023/02/26 00:49:17;;;;;;;3.03;1.58;;;18.80;63.00;;;;;;4720112;29;87628;-85
2023/02/26 00:51:49;;;;;;;3.15;1.67;;;18.80;62.90;;;;;;4722116;29;91682;-84
2023/02/26 00:54:23;;;;;;;2.35;1.40;;;18.80;62.80;;;;;;4720952;29;90570;-85
2023/02/26 00:56:50;;;;;;;1.50;1.05;;;18.70;62.80;;;;;;4721315;29;89304;-85
2023/02/26 00:59:31;;;;;;;2.25;1.55;;;18.80;62.70;;;;;;4714147;29;87034;-85
2023/02/26 01:01:57;;;;;;;2.50;1.67;;;18.80;62.80;;;;;;4720893;29;87516;-85
2023/02/26 01:04:24;;;;;;;2.90;1.10;;;18.70;62.80;;;;;;4706854;29;90740;-84
2023/02/26 01:06:53;;;;;;;3.33;1.27;;;18.70;62.70;;;;;;4708160;29;90045;-85
2023/02/26 01:09:44;;;;;;;1.75;1.27;;;18.70;62.90;;;;;;4721323;29;87793;-84
2023/02/26 01:12:12;;;;;;;2.85;1.50;;;18.70;62.60;;;;;;4686054;30;87496;-85
2023/02/26 01:14:38;;;;;;;1.77;1.10;;;18.70;62.70;;;;;;4685878;30;88189;-85
2023/02/26 01:17:32;;;;;;;1.75;1.05;;;18.60;62.60;;;;;;4701097;29;90488;-84
2023/02/26 01:20:24;;;;;;;2.15;1.08;;;18.70;62.60;;;;;;4684944;30;88446;-84
2023/02/26 01:23:13;;;;;;;1.15;0.90;;;18.60;62.60;;;;;;4650164;30;87618;-85
2023/02/26 01:25:45;;;;;;;3.33;1.43;;;18.60;62.60;;;;;;4642205;30;88480;-84
2023/02/26 01:28:11;;;;;;;1.77;1.10;;;18.60;62.60;;;;;;4632597;30;87499;-84
2023/02/26 01:30:37;;;;;;;2.17;1.20;;;18.60;62.60;;;;;;4635418;30;87373;-84
2023/02/26 01:33:21;;;;;;;2.40;1.45;;;18.60;62.60;;;;;;4633174;30;87564;-84
2023/02/26 01:35:53;;;;;;;1.58;1.05;;;18.60;62.60;;;;;;4621124;30;91870;-84
2023/02/26 01:42:12;;;;;;;2.53;1.45;;;18.60;62.50;;;;;;4633701;30;87444;-85
2023/02/26 01:45:08;;;;;;;2.92;1.40;;;18.60;62.50;;;;;;4634820;30;87528;-84
2023/02/26 01:47:39;;;;;;;1.80;1.15;;;18.50;62.40;;;;;;4637274;30;89823;-84
2023/02/26 01:50:17;;;;;;;1.70;1.33;;;18.60;62.40;;;;;;4651293;30;89063;-84
2023/02/26 01:56:16;;;;;;;2.00;1.20;;;18.50;62.50;;;;;;4653482;30;87606;-84
2023/02/26 01:58:45;;;;;;;3.30;1.38;;;18.50;62.30;;;;;;4645853;30;91769;-84
2023/02/26 02:01:11;;;;;;;2.50;1.23;;;18.50;62.40;;;;;;4721058;29;91387;-84
2023/02/26 02:03:39;;;;;;;1.70;0.98;;;18.50;62.40;;;;;;4709798;29;87540;-84
2023/02/26 02:06:15;;;;;;;2.47;1.13;;;18.40;62.30;;;;;;4714606;29;89831;-84
2023/02/26 02:08:41;;;;;;;3.78;1.25;;;18.40;62.30;;;;;;4709053;29;88364;-84
2023/02/26 02:18:19;;;;;;;1.58;1.02;;;18.40;62.40;;;;;;4709066;29;87396;-84
2023/02/26 02:21:23;;;;;;;2.40;1.15;;;18.40;62.20;;;;;;4734665;29;87702;-84
2023/02/26 02:24:30;;;;;;;2.38;1.05;;;18.40;62.20;;;;;;4743449;29;87911;-85
2023/02/26 02:27:21;;;;;;;2.50;1.00;;;18.40;62.30;;;;;;4756794;29;86973;-84
2023/02/26 02:30:14;;;;;;;2.95;1.20;;;18.30;62.50;;;;;;4742119;29;88326;-84
2023/02/26 02:32:48;;;;;;;2.75;1.30;;;18.30;62.40;;;;;;4767124;29;90873;-84
2023/02/26 02:35:33;;;;;;;1.98;1.13;;;18.30;62.40;;;;;;4768516;29;88654;-84
2023/02/26 02:45:06;;;;;;;3.60;1.10;;;18.30;62.20;;;;;;4767136;29;88677;-84
2023/02/26 02:47:35;;;;;;;2.90;1.42;;;18.30;62.30;;;;;;4745220;29;94068;-84
2023/02/26 02:50:14;;;;;;;2.03;1.00;;;18.30;62.40;;;;;;4767276;29;87831;-84
2023/02/26 02:52:59;;;;;;;4.18;1.60;;;18.30;62.20;;;;;;4766836;29;87119;-84
2023/02/26 02:56:17;;;;;;;1.98;1.00;;;18.20;62.20;;;;;;4745324;29;91281;-84
2023/02/26 02:58:51;;;;;;;3.10;1.40;;;18.20;62.20;;;;;;4767280;29;88412;-84
2023/02/26 03:01:20;;;;;;;3.10;1.25;;;18.20;62.00;;;;;;4767878;29;87658;-84
2023/02/26 03:04:01;;;;;;;2.22;1.17;;;18.20;62.10;;;;;;4756031;29;86874;-84
2023/02/26 03:06:27;;;;;;;1.73;1.15;;;18.20;62.20;;;;;;4744591;29;93139;-84
2023/02/26 03:08:53;;;;;;;2.28;1.30;;;18.20;62.10;;;;;;4749101;29;91653;-84
2023/02/26 03:11:19;;;;;;;2.08;1.38;;;18.20;62.10;;;;;;4742030;29;87818;-84
2023/02/26 03:13:47;;;;;;;2.47;1.30;;;18.20;62.10;;;;;;4742951;29;87005;-84
2023/02/26 03:16:19;;;;;;;1.98;1.00;;;18.20;62.10;;;;;;4741631;29;87361;-84
2023/02/26 03:18:54;;;;;;;2.03;1.20;;;18.10;62.10;;;;;;4742462;29;88159;-84
2023/02/26 03:22:04;;;;;;;2.33;1.27;;;18.10;62.10;;;;;;4742578;29;87417;-84
2023/02/26 03:24:48;;;;;;;2.25;1.20;;;18.10;62.00;;;;;;4669916;30;91777;-84
2023/02/26 03:27:51;;;;;;;2.83;1.38;;;18.10;62.00;;;;;;4668625;30;88778;-84
2023/02/26 03:30:49;;;;;;;2.20;1.10;;;18.10;61.90;;;;;;4635757;30;92550;-84
2023/02/26 03:33:24;;;;;;;2.92;1.52;;;18.10;61.90;;;;;;4583404;30;87921;-84
2023/02/26 03:35:59;;;;;;;2.25;1.08;;;18.10;62.00;;;;;;4582742;30;89933;-84
2023/02/26 03:38:35;;;;;;;2.78;1.50;;;18.10;62.40;;;;;;4583165;30;89511;-84
2023/02/26 03:41:11;;;;;;;1.50;0.95;;;18.10;61.90;;;;;;4583873;30;89125;-84
2023/02/26 03:43:42;;;;;;;1.10;0.80;;;18.00;61.90;;;;;;4583740;30;87393;-84
2023/02/26 03:46:14;;;;;;;2.67;1.30;;;18.00;61.80;;;;;;4583537;30;88191;-84
2023/02/26 03:48:39;;;;;;;1.98;1.08;;;18.00;61.80;;;;;;4584194;30;87522;-85
2023/02/26 03:51:11;;;;;;;1.48;0.80;;;18.00;62.00;;;;;;4583040;30;88043;-84
2023/02/26 03:53:50;;;;;;;2.88;1.20;;;18.00;62.10;;;;;;4584505;30;87719;-84
2023/02/26 03:59:37;;;;;;;1.27;0.90;;;17.90;62.00;;;;;;4582741;30;87428;-84
2023/02/26 04:02:30;;;;;;;1.83;1.10;;;18.00;61.90;;;;;;4645504;30;87833;-84
2023/02/26 04:05:02;;;;;;;1.73;1.08;;;18.00;61.80;;;;;;4653000;30;88416;-84
2023/02/26 04:07:28;;;;;;;2.45;1.13;;;18.00;61.80;;;;;;4680955;30;87520;-84
2023/02/26 04:09:54;;;;;;;1.17;0.80;;;18.00;61.90;;;;;;4717462;29;90759;-85
2023/02/26 04:12:26;;;;;;;1.90;1.00;;;18.00;61.90;;;;;;4742983;29;87581;-84
2023/02/26 04:30:13;;;;;;;1.92;1.10;;;17.90;61.80;;;;;;4715588;29;87636;-84
2023/02/26 04:32:39;;;;;;;1.67;1.10;;;17.90;61.50;;;;;;4705398;29;87516;-84
2023/02/26 04:35:04;;;;;;;1.50;1.05;;;17.90;61.80;;;;;;4719165;29;92768;-84
2023/02/26 04:37:30;;;;;;;2.20;0.98;;;17.80;61.80;;;;;;4704455;29;91171;-84
2023/02/26 04:39:56;;;;;;;1.30;1.10;;;17.80;61.70;;;;;;4706216;29;87389;-85
2023/02/26 04:42:21;;;;;;;1.20;0.85;;;17.80;61.70;;;;;;4706839;29;87095;-84
2023/02/26 04:44:47;;;;;;;1.63;0.95;;;17.80;61.80;;;;;;4719539;29;89602;-84
2023/02/26 04:47:13;;;;;;;1.55;0.90;;;17.80;61.80;;;;;;4738938;29;91574;-84
2023/02/26 04:49:38;;;;;;;1.80;1.10;;;17.80;61.70;;;;;;4739092;29;87774;-84
2023/02/26 04:52:04;;;;;;;1.80;0.85;;;17.80;61.70;;;;;;4737915;29;87430;-84
2023/02/26 04:54:49;;;;;;;1.63;1.00;;;17.80;61.70;;;;;;4724352;29;90744;-84
2023/02/26 04:57:14;;;;;;;1.48;1.00;;;17.80;61.70;;;;;;4738919;29;87267;-84
2023/02/26 04:59:40;;;;;;;1.75;1.00;;;17.70;61.50;;;;;;4738358;29;88348;-84
2023/02/26 05:02:06;;;;;;;1.95;1.10;;;17.80;61.50;;;;;;4738147;29;87358;-85
2023/02/26 05:04:31;;;;;;;2.35;0.90;;;17.70;61.60;;;;;;4731573;29;88278;-84
2023/02/26 05:06:57;;;;;;;1.40;0.90;;;17.70;61.40;;;;;;4738799;29;88183;-84
2023/02/26 05:09:41;;;;;;;1.55;1.25;;;17.70;61.50;;;;;;4724576;29;87369;-84
2023/02/26 05:12:07;;;;;;;1.52;1.20;;;17.70;61.40;;;;;;4724287;29;89473;-84
2023/02/26 05:14:33;;;;;;;1.08;0.80;;;17.70;61.40;;;;;;4739386;29;88851;-85
2023/02/26 05:16:58;;;;;;;2.08;1.08;;;17.70;61.50;;;;;;4738946;29;88378;-84
2023/02/26 05:19:24;;;;;;;1.50;0.85;;;17.70;61.40;;;;;;4707059;29;87476;-84
2023/02/26 05:21:49;;;;;;;1.25;0.90;;;17.70;61.30;;;;;;4709056;29;87339;-84
2023/02/26 05:24:15;;;;;;;2.47;1.23;;;17.70;61.30;;;;;;4708619;29;89652;-84
2023/02/26 05:26:41;;;;;;;1.75;1.00;;;17.70;62.10;;;;;;4707536;29;89262;-84
2023/02/26 05:29:07;;;;;;;1.27;0.95;;;17.70;62.00;;;;;;4710224;29;87647;-84
2023/02/26 05:31:32;;;;;;;1.30;0.63;;;17.70;62.10;;;;;;4740533;29;90850;-84
2023/02/26 05:33:58;;;;;;;0.90;0.77;;;17.70;61.30;;;;;;4744287;29;89965;-84
2023/02/26 05:36:24;;;;;;;3.17;1.35;;;17.70;61.30;;;;;;4744254;29;88036;-84
2023/02/26 05:38:49;;;;;;;2.80;1.05;;;17.70;61.30;;;;;;4743782;29;87276;-84
2023/02/26 05:47:59;;;;;;;1.13;1.00;;;17.60;61.20;;;;;;4743884;29;87335;-84
2023/02/26 05:50:26;;;;;;;1.70;0.98;;;17.60;61.20;;;;;;4743702;29;88605;-84
2023/02/26 05:52:51;;;;;;;1.25;0.82;;;17.60;61.20;;;;;;4745515;29;87832;-84
2023/02/26 05:55:17;;;;;;;1.50;0.93;;;17.60;62.00;;;;;;4737748;29;88087;-84
2023/02/26 06:04:27;;;;;;;1.77;0.98;;;17.60;61.30;;;;;;4743553;29;87182;-84
2023/02/26 06:06:53;;;;;;;2.13;1.13;;;17.60;61.30;;;;;;4744451;29;87539;-84
2023/02/26 06:09:18;;;;;;;1.52;0.98;;;17.60;61.20;;;;;;4744252;29;88355;-84
2023/02/26 06:11:44;;;;;;;1.63;1.00;;;17.60;61.20;;;;;;4743625;29;87604;-84
2023/02/26 06:17:32;;;;;;;1.38;0.90;;;17.70;61.20;;;;;;4743609;29;88415;-85
2023/02/26 06:19:58;;;;;;;2.38;1.00;;;17.60;60.90;;;;;;4744563;29;87686;-84
2023/02/26 06:22:24;;;;;;;1.63;0.90;;;17.70;60.90;;;;;;4743152;29;87523;-84
2023/02/26 06:24:49;;;;;;;3.13;1.20;;;17.70;60.90;;;;;;4744799;29;87750;-83
2023/02/26 06:27:15;;;;;;;2.03;1.00;;;17.70;60.70;;;;;;4742946;29;87817;-84
2023/02/26 06:29:41;;;;;;;3.15;1.25;;;17.90;60.90;;;;;;4742819;29;87364;-85
2023/02/26 06:32:07;;;;;;;5.18;1.00;;;17.90;60.70;;;;;;4747784;29;87613;-84
2023/02/26 06:34:33;;;;;;;1.65;1.00;;;18.10;60.60;;;;;;4743064;29;87220;-86
2023/02/26 06:36:59;;;;;;;1.98;1.10;;;18.20;60.30;;;;;;4743520;29;87605;-85
2023/02/26 06:39:24;;;;;;;5.20;1.58;;;18.30;60.40;;;;;;4722406;29;89288;-85
2023/02/26 06:45:30;;;;;;;6.40;1.48;;;18.50;60.30;;;;;;4722813;29;86991;-85
2023/02/26 06:47:56;;;;;;;4.05;1.25;;;18.70;59.20;;;;;;4723266;29;88611;-83
2023/02/26 06:50:21;;;;;;;2.42;1.38;;;18.80;59.10;;;;;;4722835;29;88499;-84
2023/02/26 06:52:47;;;;;;;2.90;1.17;;;18.80;59.20;;;;;;4714296;29;87170;-84
2023/02/26 06:55:13;;;;;;;2.47;1.38;;;18.90;59.00;;;;;;4723232;29;87681;-84
2023/02/26 06:57:42;;;;;;;2.15;1.10;;;18.90;58.80;;;;;;4723225;29;88186;-84
2023/02/26 07:00:09;;;;;;;2.65;0.98;;;19.00;58.70;;;;;;4695496;30;90057;-84
2023/02/26 07:02:35;;;;;;;2.42;1.35;;;19.00;58.60;;;;;;4696089;29;87477;-84
2023/02/26 07:05:00;;;;;;;1.80;1.27;;;19.20;58.70;;;;;;4695725;29;87098;-84
2023/02/26 07:07:26;;;;;;;3.08;1.63;;;19.20;58.30;;;;;;4695411;30;89241;-84
2023/02/26 07:09:52;;;;;;;3.17;1.30;;;19.30;58.20;;;;;;4704727;29;89655;-86
2023/02/26 07:19:00;;;;;;;2.03;0.95;;;19.50;57.70;;;;;;4731402;29;91837;-83
2023/02/26 07:21:26;;;;;;;1.85;1.30;;;19.60;57.70;;;;;;4732324;29;88557;-83
2023/02/26 07:23:52;;;;;;;1.25;1.00;;;19.50;57.60;;;;;;4716333;29;94096;-84
2023/02/26 07:26:17;;;;;;;2.50;1.60;;;19.60;57.60;;;;;;4731721;29;87742;-83
2023/02/26 07:28:43;;;;;;;6.75;2.50;;;19.60;57.60;;;;;;4716246;29;91886;-84
2023/02/26 07:31:09;;;;;;;2.13;1.05;;;19.50;57.30;;;;;;4738292;29;91049;-84
2023/02/26 07:33:34;;;;;;;1.60;1.05;;;19.50;57.30;;;;;;4739986;29;88342;-84
2023/02/26 07:36:00;;;;;;;4.38;1.33;;;19.50;57.30;;;;;;4752125;29;90722;-84
2023/02/26 07:38:26;;;;;;;4.93;1.50;;;19.50;57.00;;;;;;4737667;29;88087;-84
2023/02/26 07:40:55;;;;;;;5.78;2.03;;;19.50;57.00;;;;;;4738009;29;91120;-84
2023/02/26 07:43:21;;;;;;;14.18;2.15;;;19.50;57.30;;;;;;4738639;29;87282;-84
2023/02/26 07:45:50;;;;;;;8.10;2.05;;;19.50;57.20;;;;;;4739729;29;87362;-83
2023/02/26 07:48:15;;;;;;;17.23;4.55;;;19.50;57.40;;;;;;4740003;29;87958;-83
2023/02/26 07:50:41;;;;;;;8.90;2.47;;;19.40;57.60;;;;;;4742831;29;89724;-84
2023/02/26 07:53:07;;;;;;;13.20;2.40;;;19.40;57.90;;;;;;4743781;29;87054;-84
2023/02/26 07:55:32;;;;;;;10.95;2.75;;;19.40;58.00;;;;;;4738646;29;86917;-85
2023/02/26 07:58:07;;;;;;;12.30;2.63;;;19.40;57.80;;;;;;4750689;29;89617;-84
2023/02/26 08:00:33;;;;;;;12.88;3.20;;;19.40;57.90;;;;;;4742687;29;87402;-84
2023/02/26 08:02:58;;;;;;;14.65;3.28;;;19.50;57.90;;;;;;4742651;29;87591;-83
2023/02/26 08:05:26;;;;;;;12.75;2.60;;;19.50;57.70;;;;;;4748911;29;90100;-83
2023/02/26 08:07:52;;;;;;;12.05;2.90;;;19.60;57.80;;;;;;4742333;29;89056;-84
2023/02/26 08:10:20;;;;;;;11.55;3.13;;;19.70;57.70;;;;;;4742053;29;87453;-84
2023/02/26 08:12:45;;;;;;;16.55;3.90;;;19.80;57.40;;;;;;4742742;29;87382;-84
2023/02/26 08:15:13;;;;;;;12.00;3.00;;;19.80;57.20;;;;;;4742403;29;86885;-84
2023/02/26 08:17:39;;;;;;;12.68;2.70;;;19.80;57.50;;;;;;4742624;29;88604;-84
2023/02/26 08:20:07;;;;;;;11.00;2.85;;;19.80;57.60;;;;;;4740759;29;88289;-84
2023/02/26 08:22:33;;;;;;;13.68;3.63;;;19.80;57.40;;;;;;4745006;29;88465;-84
2023/02/26 08:24:59;;;;;;;14.45;3.13;;;19.80;57.70;;;;;;4741883;29;87373;-84
2023/02/26 08:27:25;;;;;;;11.15;2.97;;;19.80;57.80;;;;;;4742932;29;87339;-83
2023/02/26 08:29:51;;;;;;;16.08;3.60;;;19.80;58.10;;;;;;4741867;29;87706;-84
2023/02/26 08:32:18;;;;;;;14.23;3.75;;;19.80;58.40;;;;;;4752430;29;88068;-83
2023/02/26 08:34:45;;;;;;;14.43;2.85;;;19.80;58.00;;;;;;4747343;29;89702;-83
2023/02/26 08:37:11;;;;;;;14.80;3.30;;;19.80;58.20;;;;;;4741087;29;88727;-83
2023/02/26 08:39:38;;;;;;;11.93;3.35;;;19.70;58.20;;;;;;4742136;29;88318;-83
2023/02/26 08:42:06;;;;;;;12.23;3.50;;;19.70;58.10;;;;;;4741437;29;87589;-83
2023/02/26 08:44:31;;;;;;;11.35;3.28;;;19.70;58.40;;;;;;4742853;29;87388;-84
2023/02/26 08:46:57;;;;;;;11.55;3.30;;;19.70;58.40;;;;;;4741220;29;89789;-83
2023/02/26 08:49:23;;;;;;;16.00;3.67;;;19.70;58.50;;;;;;4741739;29;88738;-84
2023/02/26 08:51:54;;;;;;;10.60;3.45;;;19.70;58.60;;;;;;4741865;29;87214;-83
2023/02/26 08:54:19;;;;;;;13.45;3.53;;;19.70;58.30;;;;;;4741675;29;93601;-84
2023/02/26 08:56:45;;;;;;;12.00;3.60;;;19.70;58.50;;;;;;4750339;29;91795;-83
2023/02/26 08:59:11;;;;;;;9.10;3.00;;;19.70;58.60;;;;;;4743681;29;88102;-82
2023/02/26 09:01:37;;;;;;;13.30;3.75;;;19.60;58.70;;;;;;4750925;29;87453;-82
2023/02/26 09:04:03;;;;;;;19.73;5.00;;;19.60;57.50;;;;;;4745165;29;87509;-82
2023/02/26 09:10:07;;;;;;;9.82;3.33;;;19.50;56.40;;;;;;4744062;29;91201;-83
2023/02/26 09:12:35;;;;;;;11.23;3.80;;;19.60;57.80;;;;;;4745506;29;87952;-83
2023/02/26 09:15:03;;;;;;;14.23;3.95;;;19.60;58.00;;;;;;4757637;29;90597;-82
2023/02/26 09:17:29;;;;;;;11.88;3.67;;;19.60;57.90;;;;;;4745501;29;89584;-83
2023/02/26 09:19:54;;;;;;;9.35;3.00;;;19.70;57.80;;;;;;4744310;29;87768;-83
2023/02/26 09:22:20;;;;;;;14.52;3.85;;;19.70;57.80;;;;;;4745443;29;87314;-83
2023/02/26 09:24:45;;;;;;;15.45;4.30;;;19.80;56.60;;;;;;4745561;29;87325;-82
2023/02/26 09:27:18;;;;;;;18.13;4.85;;;19.80;55.80;;;;;;4745332;29;88082;-82
2023/02/26 09:29:43;;;;;;;16.15;4.32;;;19.80;56.00;;;;;;4761360;29;90888;-84
2023/02/26 09:32:09;;;;;;;13.45;3.63;;;19.90;56.70;;;;;;4757471;29;87100;-83
2023/02/26 09:34:38;;;;;;;15.77;4.10;;;20.00;57.00;;;;;;4744336;29;87290;-82
2023/02/26 09:37:05;;;;;;;9.80;3.43;;;20.00;57.20;;;;;;4735446;29;88940;-83
2023/02/26 09:39:31;;;;;;;12.38;4.13;;;20.00;57.10;;;;;;4744832;29;88942;-83
2023/02/26 09:42:08;;;;;;;14.38;4.03;;;20.10;57.60;;;;;;4743591;29;87549;-83
2023/02/26 09:44:37;;;;;;;13.75;3.63;;;20.10;57.30;;;;;;4736582;29;87432;-83
2023/02/26 09:47:20;;;;;;;11.98;3.97;;;19.90;56.50;;;;;;4744579;29;88731;-83
2023/02/26 09:50:04;;;;;;;15.90;4.53;;;19.90;57.20;;;;;;4742972;29;91736;-83
2023/02/26 09:53:20;;;;;;;13.75;3.38;;;19.90;57.60;;;;;;4744573;29;87125;-84
2023/02/26 09:55:49;;;;;;;14.80;3.63;;;19.80;57.60;;;;;;4745882;29;87459;-84
2023/02/26 09:58:35;;;;;;;12.70;3.65;;;19.70;58.00;;;;;;4744787;29;88632;-84
2023/02/26 10:01:17;;;;;;;13.68;3.63;;;19.60;58.30;;;;;;4743392;29;88332;-83
2023/02/26 10:03:58;;;;;;;11.10;3.50;;;19.60;58.30;;;;;;4743478;29;88143;-83
2023/02/26 10:06:28;;;;;;;11.60;3.60;;;19.60;58.80;;;;;;4749842;29;94096;-83
2023/02/26 10:09:31;;;;;;;13.75;3.60;;;19.60;59.20;;;;;;4744891;29;88150;-83
2023/02/26 10:12:00;;;;;;;13.55;4.03;;;19.60;59.40;;;;;;4743965;29;88542;-83
2023/02/26 10:14:36;;;;;;;11.32;3.58;;;19.60;59.70;;;;;;4743308;29;87206;-83
2023/02/26 10:17:23;;;;;;;12.88;4.43;;;19.60;60.00;;;;;;4742847;29;87803;-83
2023/02/26 10:19:54;;;;;;;11.45;4.18;;;19.70;61.50;;;;;;4743800;29;88181;-82
2023/02/26 10:22:31;;;;;;;10.25;3.25;;;19.80;61.30;;;;;;4742357;29;88226;-83
2023/02/26 10:25:20;;;;;;;15.60;4.30;;;19.90;61.00;;;;;;4743447;29;86938;-84
2023/02/26 10:28:03;;;;;;;11.98;4.07;;;20.00;60.80;;;;;;4744718;29;87737;-84
2023/02/26 10:46:28;;;;;;;11.63;3.45;;;19.80;58.60;;;;;;4717120;29;91802;-83
2023/02/26 10:49:20;;;;;;;12.65;5.00;;;19.90;58.30;;;;;;4720097;29;91196;-83
2023/02/26 10:51:46;;;;;;;158.00;40.88;;;19.80;58.40;;;;;;4723265;29;87299;-81
2023/02/26 10:54:34;;;;;;;103.85;26.55;;;19.70;58.10;;;;;;4705406;29;90499;-82
2023/02/26 11:00:26;;;;;;;93.22;23.75;;;19.70;59.00;;;;;;4706617;29;91558;-83
2023/02/26 11:02:54;;;;;;;85.10;23.75;;;19.80;60.80;;;;;;4706744;29;87993;-83
2023/02/26 11:05:26;;;;;;;80.40;20.30;;;19.90;61.40;;;;;;4704645;29;86971;-82
2023/02/26 11:08:00;;;;;;;86.03;23.85;;;19.90;61.70;;;;;;4705896;29;88955;-82
2023/02/26 11:10:46;;;;;;;87.28;22.20;;;20.00;61.80;;;;;;4706765;29;88984;-83
2023/02/26 11:20:04;;;;;;;79.53;21.88;;;20.20;62.00;;;;;;4705215;29;87053;-85
2023/02/26 11:22:32;;;;;;;77.45;19.10;;;20.30;62.10;;;;;;4707035;29;88145;-84
2023/02/26 11:24:59;;;;;;;81.07;19.53;;;20.30;62.30;;;;;;4712290;29;87279;-85
2023/02/26 11:27:33;;;;;;;81.57;19.92;;;20.30;62.20;;;;;;4725783;29;90217;-85
2023/02/26 11:30:13;;;;;;;71.85;19.95;;;20.20;62.00;;;;;;4706406;29;89807;-84
2023/02/26 11:32:39;;;;;;;66.60;18.63;;;20.20;61.80;;;;;;4709780;29;88586;-85
2023/02/26 11:35:08;;;;;;;60.78;16.92;;;20.20;61.10;;;;;;4710183;29;87414;-85
2023/02/26 11:37:37;;;;;;;71.60;18.27;;;20.10;61.80;;;;;;4719323;29;90246;-84
2023/02/26 11:40:09;;;;;;;;;;;20.20;61.90;;;;;;4706958;29;88141;-85
2023/02/26 11:42:39;;;;;;;60.55;18.73;;;20.20;61.90;;;;;;4709957;29;87840;-86
2023/02/26 11:45:06;;;;;;;59.53;17.25;;;20.30;61.30;;;;;;4706152;29;87544;-86
2023/02/26 11:47:33;;;;;;;55.38;16.48;;;20.40;61.40;;;;;;4727382;29;87599;-85
2023/02/26 11:50:12;;;;;;;51.72;16.13;;;20.50;61.50;;;;;;4740940;29;89418;-86
2023/02/26 11:52:44;;;;;;;52.90;16.55;;;20.60;61.60;;;;;;4742166;29;88047;-85
2023/02/26 11:55:19;;;;;;;44.13;14.50;;;20.70;61.30;;;;;;4747512;29;88687;-84
2023/02/26 11:57:52;;;;;;;48.45;13.88;;;20.80;60.70;;;;;;4741974;29;87519;-85
2023/02/26 12:00:28;;;;;;;48.15;14.77;;;20.80;60.90;;;;;;4742149;29;93539;-84
2023/02/26 12:03:07;;;;;;;49.97;16.40;;;20.90;60.90;;;;;;4741260;29;87851;-83
2023/02/26 12:19:20;;;;;;;44.30;14.10;;;20.70;59.80;;;;;;4742663;29;87468;-83
2023/02/26 12:22:07;;;;;;;39.88;13.57;;;20.70;60.60;;;;;;4741214;29;87451;-84
2023/02/26 12:25:05;;;;;;;48.05;13.40;;;20.70;61.10;;;;;;4740332;29;94555;-84
2023/02/26 12:27:58;;;;;;;41.20;12.98;;;20.60;61.00;;;;;;4711936;29;93361;-84
2023/02/26 12:30:54;;;;;;;40.33;12.73;;;20.60;61.10;;;;;;4711217;29;87021;-84
2023/02/26 12:33:38;;;;;;;41.85;13.02;;;20.60;61.20;;;;;;4712122;29;91735;-84
2023/02/26 12:36:37;;;;;;;41.50;12.93;;;20.60;60.60;;;;;;4704054;29;89160;-84
2023/02/26 12:39:21;;;;;;;34.83;12.45;;;20.60;60.40;;;;;;4711976;29;88358;-84
2023/02/26 12:42:02;;;;;;;41.50;14.18;;;20.60;60.20;;;;;;4712128;29;87774;-84
2023/02/26 12:45:11;;;;;;;39.90;12.45;;;20.70;60.00;;;;;;4713285;29;87639;-84
2023/02/26 12:47:59;;;;;;;37.72;11.90;;;20.70;59.60;;;;;;4726343;29;90821;-84
2023/02/26 12:50:58;;;;;;;37.97;11.57;;;20.70;59.10;;;;;;4697005;29;90417;-84
2023/02/26 12:53:50;;;;;;;44.97;11.95;;;20.70;59.20;;;;;;4658847;30;89327;-84
2023/02/26 13:07:12;;;;;;;31.02;11.05;;;20.60;59.20;;;;;;4702832;29;87094;-83
2023/02/26 13:10:01;;;;;;;40.65;11.02;;;20.70;59.00;;;;;;4632865;30;91353;-83
2023/02/26 13:12:48;;;;;;;;;;;20.70;58.80;;;;;;4632978;30;92788;-83
2023/02/26 13:15:36;;;;;;;34.55;10.80;;;20.70;59.00;;;;;;4635901;30;87448;-83
2023/02/26 13:28:25;;;;;;;38.28;11.10;;;20.60;59.20;;;;;;4633875;30;91348;-83
2023/02/26 13:30:55;;;;;;;32.38;11.25;;;20.60;59.20;;;;;;4651991;30;87195;-85
2023/02/26 13:33:26;;;;;;;33.40;10.60;;;20.70;58.80;;;;;;4650583;30;91324;-84
2023/02/26 13:38:32;;;;;;;30.38;10.45;;;20.80;58.70;;;;;;4648833;30;88130;-85
2023/02/26 13:41:11;;;;;;;28.98;9.90;;;20.80;58.60;;;;;;4653148;30;87604;-85
2023/02/26 13:43:48;;;;;;;29.67;8.77;;;20.80;58.60;;;;;;4654289;30;90650;-85
2023/02/26 13:46:38;;;;;;;26.25;9.10;;;20.80;58.70;;;;;;4730389;29;91814;-85
2023/02/26 13:49:28;;;;;;;31.33;10.02;;;20.70;58.50;;;;;;4743845;29;88441;-85
2023/02/26 13:51:56;;;;;;;28.40;9.82;;;20.70;58.20;;;;;;4743222;29;88194;-85
2023/02/26 13:54:52;;;;;;;26.50;9.25;;;20.70;58.10;;;;;;4744441;29;87557;-84
2023/02/26 13:57:35;;;;;;;26.92;9.50;;;20.70;58.20;;;;;;4743574;29;93288;-85
2023/02/26 14:00:11;;;;;;;26.48;9.25;;;20.70;58.20;;;;;;4740951;29;89984;-85
2023/02/26 14:02:58;;;;;;;25.35;8.40;;;20.70;58.00;;;;;;4743718;29;87410;-86
2023/02/26 14:16:00;;;;;;;28.35;9.70;;;21.10;57.60;;;;;;4743967;29;87020;-85
2023/02/26 14:18:38;;;;;;;21.70;8.80;;;21.20;57.50;;;;;;4757285;29;92677;-85
2023/02/26 14:21:27;;;;;;;24.60;9.40;;;21.30;57.30;;;;;;4742275;29;89868;-85
2023/02/26 14:24:16;;;;;;;28.73;9.73;;;21.30;57.20;;;;;;4678244;30;88391;-85
2023/02/26 14:27:06;;;;;;;24.80;8.73;;;21.40;57.50;;;;;;4678546;30;87535;-85
2023/02/26 14:29:52;;;;;;;23.50;9.43;;;21.40;57.50;;;;;;4669988;30;87118;-85
2023/02/26 14:32:31;;;;;;;24.45;8.38;;;21.40;57.10;;;;;;4678976;30;87872;-85
2023/02/26 14:35:10;;;;;;;24.10;8.43;;;21.30;57.30;;;;;;4677829;30;87728;-85
2023/02/26 14:37:38;;;;;;;23.13;8.87;;;21.30;57.40;;;;;;4678522;30;87659;-85
2023/02/26 14:40:25;;;;;;;24.10;8.50;;;21.30;57.60;;;;;;4678996;30;86751;-85
2023/02/26 14:42:59;;;;;;;20.40;7.50;;;21.30;58.00;;;;;;4679662;30;88342;-86
2023/02/26 14:45:40;;;;;;;18.58;7.78;;;21.20;58.20;;;;;;4678492;30;91430;-86
2023/02/26 14:48:11;;;;;;;25.40;8.35;;;21.20;58.20;;;;;;4677616;30;90313;-86
2023/02/26 14:51:01;;;;;;;22.98;8.50;;;21.20;58.50;;;;;;4677727;30;87394;-85
2023/02/26 14:53:45;;;;;;;18.20;6.38;;;21.20;58.40;;;;;;4677223;30;89186;-85
2023/02/26 14:56:29;;;;;;;21.88;7.40;;;21.20;58.60;;;;;;4677673;30;88413;-84
2023/02/26 14:59:18;;;;;;;21.75;7.95;;;21.30;58.70;;;;;;4676725;30;87165;-85
2023/02/26 15:01:49;;;;;;;22.15;7.75;;;21.50;57.90;;;;;;4728024;29;87160;-86
2023/02/26 15:04:27;;;;;;;17.42;6.82;;;21.50;58.00;;;;;;4742417;29;88466;-86
2023/02/26 15:07:05;;;;;;;25.15;8.70;;;21.60;57.90;;;;;;4743174;29;88043;-85
2023/02/26 15:09:51;;;;;;;19.20;7.18;;;21.70;57.90;;;;;;4742726;29;87418;-85
2023/02/26 15:12:52;;;;;;;16.73;7.22;;;21.70;57.30;;;;;;4742255;29;87585;-85
2023/02/26 15:15:33;;;;;;;19.73;6.85;;;21.80;57.60;;;;;;4748427;29;97298;-86
2023/02/26 15:18:37;;;;;;;22.25;7.63;;;22.00;56.90;;;;;;4744333;29;89094;-86
2023/02/26 15:21:51;;;;;;;26.60;7.22;;;22.10;57.40;;;;;;4756900;29;87067;-86
2023/02/26 15:24:18;;;;;;;21.25;6.95;;;22.10;57.60;;;;;;4686601;29;87459;-86
2023/02/26 15:26:53;;;;;;;18.75;6.95;;;22.20;57.20;;;;;;4690342;29;88774;-86
2023/02/26 15:29:27;;;;;;;19.00;7.72;;;22.20;57.30;;;;;;4680680;29;88754;-85
2023/02/26 15:32:18;;;;;;;25.17;7.05;;;22.30;57.80;;;;;;4683563;30;87185;-83
2023/02/26 15:34:46;;;;;;;;;;;22.30;57.90;;;;;;4684017;30;88467;-85
2023/02/26 15:37:22;;;;;;;19.25;6.93;;;22.30;58.30;;;;;;4682359;30;88096;-88
2023/02/26 15:39:49;;;;;;;20.13;6.68;;;22.30;58.40;;;;;;4685812;30;88694;-85
2023/02/26 15:42:16;;;;;;;76.85;21.70;;;22.40;57.10;;;;;;4676427;30;88049;-85
2023/02/26 15:44:43;;;;;;;92.97;24.95;;;22.50;56.70;;;;;;4684803;30;90142;-84
2023/02/26 16:03:27;;;;;;;62.03;17.38;;;22.60;52.40;;;;;;4736126;29;91935;-86
2023/02/26 16:05:55;;;;;;;59.15;17.42;;;22.80;53.40;;;;;;4742849;29;88860;-85
2023/02/26 16:08:21;;;;;;;56.70;18.08;;;22.80;54.20;;;;;;4742974;29;87682;-85
2023/02/26 16:10:46;;;;;;;58.50;16.05;;;22.80;55.20;;;;;;4742373;29;88436;-86
2023/02/26 16:13:27;;;;;;;58.25;17.35;;;22.80;55.50;;;;;;4742080;29;89441;-84